sensor_id;sensor_type;location;lat;lon;timestamp;pressure;altitude;pressure_sealevel;temperature;humidity
55418;BME280;41287;47.554;7.844;2023-04-24T00:00:45;97150.66;;;17.15;60.58
55418;BME280;41287;47.554;7.844;2023-04-24T00:03:11;97149.06;;;17.14;60.62
55418;BME280;41287;47.554;7.844;2023-04-24T00:05:39;97151.78;;;17.14;60.52
55418;BME280;41287;47.554;7.844;2023-04-24T00:08:05;97163.06;;;17.16;60.75
55418;BME280;41287;47.554;7.844;2023-04-24T00:10:31;97166.56;;;17.17;60.60
55418;BME280;41287;47.554;7.844;2023-04-24T00:12:56;97161.47;;;17.15;60.63
55418;BME280;41287;47.554;7.844;2023-04-24T00:15:22;97164.19;;;17.15;60.61
55418;BME280;41287;47.554;7.844;2023-04-24T00:17:47;97169.59;;;17.15;60.63
55418;BME280;41287;47.554;7.844;2023-04-24T00:20:13;97159.91;;;17.14;60.81
55418;BME280;41287;47.554;7.844;2023-04-24T00:22:39;97162.59;;;17.14;60.78
55418;BME280;41287;47.554;7.844;2023-04-24T00:25:07;97159.91;;;17.14;60.57
55418;BME280;41287;47.554;7.844;2023-04-24T00:27:33;97161.47;;;17.15;60.71
55418;BME280;41287;47.554;7.844;2023-04-24T00:30:00;97159.56;;;17.16;60.61
55418;BME280;41287;47.554;7.844;2023-04-24T00:32:25;97152.56;;;17.15;60.67
55418;BME280;41287;47.554;7.844;2023-04-24T00:34:50;97151.78;;;17.14;60.74
55418;BME280;41287;47.554;7.844;2023-04-24T00:37:17;97160.34;;;17.16;60.72
55418;BME280;41287;47.554;7.844;2023-04-24T00:39:44;97153.34;;;17.15;60.71
55418;BME280;41287;47.554;7.844;2023-04-24T00:42:10;97153.34;;;17.15;60.69
55418;BME280;41287;47.554;7.844;2023-04-24T00:44:35;97152.56;;;17.15;60.52
55418;BME280;41287;47.554;7.844;2023-04-24T00:47:01;97149.84;;;17.15;60.72
55418;BME280;41287;47.554;7.844;2023-04-24T00:49:28;97150.66;;;17.15;60.75
55418;BME280;41287;47.554;7.844;2023-04-24T00:51:54;97153.34;;;17.15;60.78
55418;BME280;41287;47.554;7.844;2023-04-24T00:54:19;97154.16;;;17.16;60.76
55418;BME280;41287;47.554;7.844;2023-04-24T00:56:45;97149.53;;;17.16;60.57
55418;BME280;41287;47.554;7.844;2023-04-24T00:59:12;97151.44;;;17.16;60.68
55418;BME280;41287;47.554;7.844;2023-04-24T01:01:38;97148.38;;;17.17;60.65
55418;BME280;41287;47.554;7.844;2023-04-24T01:04:07;97154.94;;;17.16;60.65
55418;BME280;41287;47.554;7.844;2023-04-24T01:06:32;97150.31;;;17.17;60.65
55418;BME280;41287;47.554;7.844;2023-04-24T01:08:59;97149.53;;;17.16;60.78
55418;BME280;41287;47.554;7.844;2023-04-24T01:11:27;97146.81;;;17.16;60.56
55418;BME280;41287;47.554;7.844;2023-04-24T01:13:52;97150.66;;;17.15;60.71
55418;BME280;41287;47.554;7.844;2023-04-24T01:16:18;97147.94;;;17.15;60.66
55418;BME280;41287;47.554;7.844;2023-04-24T01:18:46;97150.66;;;17.15;60.67
55418;BME280;41287;47.554;7.844;2023-04-24T01:21:13;97143.31;;;17.16;60.62
55418;BME280;41287;47.554;7.844;2023-04-24T01:23:39;97144.09;;;17.16;60.71
55418;BME280;41287;47.554;7.844;2023-04-24T01:26:05;97146.81;;;17.16;60.60
55418;BME280;41287;47.554;7.844;2023-04-24T01:28:30;97144.91;;;17.17;60.64
55418;BME280;41287;47.554;7.844;2023-04-24T01:30:56;97139.47;;;17.17;60.73
55418;BME280;41287;47.554;7.844;2023-04-24T01:33:21;97140.28;;;17.17;60.56
55418;BME280;41287;47.554;7.844;2023-04-24T01:35:48;97134.06;;;17.17;60.81
55418;BME280;41287;47.554;7.844;2023-04-24T01:38:13;97135.97;;;17.16;60.78
55418;BME280;41287;47.554;7.844;2023-04-24T01:40:39;97138.69;;;17.16;60.57
55418;BME280;41287;47.554;7.844;2023-04-24T01:43:06;97141.41;;;17.16;60.81
55418;BME280;41287;47.554;7.844;2023-04-24T01:45:32;97140.59;;;17.16;60.65
55418;BME280;41287;47.554;7.844;2023-04-24T01:47:57;97139.81;;;17.15;60.71
55418;BME280;41287;47.554;7.844;2023-04-24T01:50:27;97142.97;;;17.17;60.75
55418;BME280;41287;47.554;7.844;2023-04-24T01:52:53;97146.81;;;17.16;60.63
55418;BME280;41287;47.554;7.844;2023-04-24T01:55:18;97145.69;;;17.17;60.62
55418;BME280;41287;47.554;7.844;2023-04-24T01:57:45;97148.38;;;17.17;60.63
55418;BME280;41287;47.554;7.844;2023-04-24T02:00:11;97144.91;;;17.17;60.61
55418;BME280;41287;47.554;7.844;2023-04-24T02:02:38;97146.47;;;17.18;60.72
55418;BME280;41287;47.554;7.844;2023-04-24T02:05:06;97144.91;;;17.17;60.57
55418;BME280;41287;47.554;7.844;2023-04-24T02:07:31;97139.47;;;17.17;60.73
55418;BME280;41287;47.554;7.844;2023-04-24T02:09:57;97144.09;;;17.16;60.68
55418;BME280;41287;47.554;7.844;2023-04-24T02:12:24;97142.19;;;17.17;60.55
55418;BME280;41287;47.554;7.844;2023-04-24T02:14:51;97144.09;;;17.16;60.67
55418;BME280;41287;47.554;7.844;2023-04-24T02:17:17;97146.81;;;17.16;60.61
55418;BME280;41287;47.554;7.844;2023-04-24T02:19:44;97151.44;;;17.16;60.73
55418;BME280;41287;47.554;7.844;2023-04-24T02:22:10;97146.81;;;17.16;60.72
55418;BME280;41287;47.554;7.844;2023-04-24T02:24:36;97148.38;;;17.17;60.81
55418;BME280;41287;47.554;7.844;2023-04-24T02:27:01;97149.53;;;17.16;60.64
55418;BME280;41287;47.554;7.844;2023-04-24T02:29:27;97144.09;;;17.16;60.72
55418;BME280;41287;47.554;7.844;2023-04-24T02:31:53;97146.81;;;17.16;60.81
55418;BME280;41287;47.554;7.844;2023-04-24T02:34:18;97160.34;;;17.16;60.76
55418;BME280;41287;47.554;7.844;2023-04-24T02:36:44;97153.81;;;17.17;60.65
55418;BME280;41287;47.554;7.844;2023-04-24T02:39:09;97152.22;;;17.16;60.60
55418;BME280;41287;47.554;7.844;2023-04-24T02:41:34;97160.34;;;17.16;60.78
55418;BME280;41287;47.554;7.844;2023-04-24T02:44:01;97160.34;;;17.16;60.77
55418;BME280;41287;47.554;7.844;2023-04-24T02:46:28;97155.72;;;17.17;60.77
55418;BME280;41287;47.554;7.844;2023-04-24T02:48:54;97153.00;;;17.17;60.73
55418;BME280;41287;47.554;7.844;2023-04-24T02:51:19;97154.94;;;17.16;60.62
55418;BME280;41287;47.554;7.844;2023-04-24T02:53:45;97154.94;;;17.16;60.87
55418;BME280;41287;47.554;7.844;2023-04-24T02:56:10;97154.94;;;17.16;61.18
55418;BME280;41287;47.554;7.844;2023-04-24T02:58:37;97154.59;;;17.18;60.78
55418;BME280;41287;47.554;7.844;2023-04-24T03:01:03;97147.59;;;17.17;60.75
55418;BME280;41287;47.554;7.844;2023-04-24T03:03:28;97146.81;;;17.16;60.62
55418;BME280;41287;47.554;7.844;2023-04-24T03:05:55;97155.72;;;17.17;60.76
55418;BME280;41287;47.554;7.844;2023-04-24T03:08:23;97153.00;;;17.17;60.69
55418;BME280;41287;47.554;7.844;2023-04-24T03:10:48;97148.38;;;17.17;60.67
55418;BME280;41287;47.554;7.844;2023-04-24T03:13:15;97148.38;;;17.17;60.71
55418;BME280;41287;47.554;7.844;2023-04-24T03:15:41;97142.19;;;17.17;60.84
55418;BME280;41287;47.554;7.844;2023-04-24T03:18:08;97148.38;;;17.17;60.72
55418;BME280;41287;47.554;7.844;2023-04-24T03:20:33;97145.69;;;17.17;60.65
55418;BME280;41287;47.554;7.844;2023-04-24T03:22:59;97145.69;;;17.17;60.79
55418;BME280;41287;47.554;7.844;2023-04-24T03:25:24;97149.53;;;17.16;60.75
55418;BME280;41287;47.554;7.844;2023-04-24T03:27:50;97161.13;;;17.17;60.78
55418;BME280;41287;47.554;7.844;2023-04-24T03:30:15;97171.19;;;17.16;60.77
55418;BME280;41287;47.554;7.844;2023-04-24T03:32:40;97169.25;;;17.17;60.79
55418;BME280;41287;47.554;7.844;2023-04-24T03:35:07;97186.28;;;17.17;60.90
55418;BME280;41287;47.554;7.844;2023-04-24T03:37:33;97190.91;;;17.17;60.81
55418;BME280;41287;47.554;7.844;2023-04-24T03:40:01;97199.03;;;17.17;60.72
55418;BME280;41287;47.554;7.844;2023-04-24T03:42:31;97207.94;;;17.17;60.79
55418;BME280;41287;47.554;7.844;2023-04-24T03:44:56;97207.16;;;17.17;60.79
55418;BME280;41287;47.554;7.844;2023-04-24T03:47:21;97217.97;;;17.17;60.90
55418;BME280;41287;47.554;7.844;2023-04-24T03:49:48;97215.28;;;17.17;60.85
55418;BME280;41287;47.554;7.844;2023-04-24T03:52:15;97217.97;;;17.17;60.79
55418;BME280;41287;47.554;7.844;2023-04-24T03:54:41;97224.19;;;17.17;60.87
55418;BME280;41287;47.554;7.844;2023-04-24T03:57:06;97220.69;;;17.17;60.86
55418;BME280;41287;47.554;7.844;2023-04-24T03:59:31;97213.34;;;17.17;60.86
55418;BME280;41287;47.554;7.844;2023-04-24T04:01:57;97220.69;;;17.17;60.73
55418;BME280;41287;47.554;7.844;2023-04-24T04:04:22;97224.97;;;17.18;60.95
55418;BME280;41287;47.554;7.844;2023-04-24T04:06:47;97226.19;;;17.20;61.17
55418;BME280;41287;47.554;7.844;2023-04-24T04:09:13;97223.25;;;17.25;61.37
55418;BME280;41287;47.554;7.844;2023-04-24T04:11:38;97234.97;;;17.29;61.56
55418;BME280;41287;47.554;7.844;2023-04-24T04:14:04;97235.06;;;17.33;61.83
55418;BME280;41287;47.554;7.844;2023-04-24T04:16:30;97239.44;;;17.37;62.33
55418;BME280;41287;47.554;7.844;2023-04-24T04:18:55;97236.03;;;17.41;62.95
55418;BME280;41287;47.554;7.844;2023-04-24T04:21:21;97236.94;;;17.45;64.03
55418;BME280;41287;47.554;7.844;2023-04-24T04:23:46;97253.25;;;17.48;64.71
55418;BME280;41287;47.554;7.844;2023-04-24T04:26:13;97256.06;;;17.52;65.74
55418;BME280;41287;47.554;7.844;2023-04-24T04:28:40;97264.28;;;17.55;66.63
55418;BME280;41287;47.554;7.844;2023-04-24T04:31:06;97263.59;;;17.58;67.48
55418;BME280;41287;47.554;7.844;2023-04-24T04:33:33;97257.16;;;17.63;68.41
55418;BME280;41287;47.554;7.844;2023-04-24T04:35:58;97261.47;;;17.64;68.57
55418;BME280;41287;47.554;7.844;2023-04-24T04:38:28;97266.44;;;17.62;67.18
55418;BME280;41287;47.554;7.844;2023-04-24T04:40:55;97274.09;;;17.60;66.49
55418;BME280;41287;47.554;7.844;2023-04-24T04:43:23;97268.56;;;17.56;66.52
55418;BME280;41287;47.554;7.844;2023-04-24T04:45:49;97276.25;;;17.54;66.28
55418;BME280;41287;47.554;7.844;2023-04-24T04:48:16;97276.63;;;17.53;65.90
55418;BME280;41287;47.554;7.844;2023-04-24T04:50:42;97282.38;;;17.51;65.50
55418;BME280;41287;47.554;7.844;2023-04-24T04:53:08;97290.06;;;17.49;65.30
55418;BME280;41287;47.554;7.844;2023-04-24T04:55:33;97291.97;;;17.49;64.77
55418;BME280;41287;47.554;7.844;2023-04-24T04:57:58;97288.84;;;17.47;64.76
55418;BME280;41287;47.554;7.844;2023-04-24T05:00:25;97294.25;;;17.47;64.42
55418;BME280;41287;47.554;7.844;2023-04-24T05:02:52;97301.59;;;17.46;64.32
55418;BME280;41287;47.554;7.844;2023-04-24T05:05:19;97297.28;;;17.45;64.17
55418;BME280;41287;47.554;7.844;2023-04-24T05:07:45;97304.97;;;17.43;64.01
55418;BME280;41287;47.554;7.844;2023-04-24T05:10:11;97316.59;;;17.44;63.94
55418;BME280;41287;47.554;7.844;2023-04-24T05:12:37;97313.09;;;17.43;63.88
55418;BME280;41287;47.554;7.844;2023-04-24T05:15:03;97320.44;;;17.43;63.71
55418;BME280;41287;47.554;7.844;2023-04-24T05:17:29;97323.94;;;17.43;63.56
55418;BME280;41287;47.554;7.844;2023-04-24T05:19:54;97326.19;;;17.41;63.69
55418;BME280;41287;47.554;7.844;2023-04-24T05:22:20;97326.19;;;17.41;63.79
55418;BME280;41287;47.554;7.844;2023-04-24T05:24:46;97334.31;;;17.41;63.47
55418;BME280;41287;47.554;7.844;2023-04-24T05:27:12;97335.44;;;17.40;63.44
55418;BME280;41287;47.554;7.844;2023-04-24T05:29:38;97340.09;;;17.40;63.20
55418;BME280;41287;47.554;7.844;2023-04-24T05:32:05;97345.50;;;17.40;63.26
55418;BME280;41287;47.554;7.844;2023-04-24T05:34:32;97338.50;;;17.38;63.23
55418;BME280;41287;47.554;7.844;2023-04-24T05:36:58;97343.13;;;17.38;63.25
55418;BME280;41287;47.554;7.844;2023-04-24T05:39:23;97345.84;;;17.38;63.13
55418;BME280;41287;47.554;7.844;2023-04-24T05:41:50;97347.75;;;17.37;62.94
55418;BME280;41287;47.554;7.844;2023-04-24T05:44:15;97351.59;;;17.36;63.19
55418;BME280;41287;47.554;7.844;2023-04-24T05:46:40;97359.72;;;17.36;63.17
55418;BME280;41287;47.554;7.844;2023-04-24T05:49:06;97358.13;;;17.35;63.15
55418;BME280;41287;47.554;7.844;2023-04-24T05:51:33;97355.44;;;17.35;62.83
55418;BME280;41287;47.554;7.844;2023-04-24T05:54:03;97360.06;;;17.35;62.90
55418;BME280;41287;47.554;7.844;2023-04-24T05:56:28;97366.25;;;17.35;62.68
55418;BME280;41287;47.554;7.844;2023-04-24T05:58:53;97363.56;;;17.35;62.66
55418;BME280;41287;47.554;7.844;2023-04-24T06:01:19;97369.75;;;17.36;62.39
55418;BME280;41287;47.554;7.844;2023-04-24T06:03:44;97366.25;;;17.35;62.33
55418;BME280;41287;47.554;7.844;2023-04-24T06:06:10;97374.38;;;17.35;62.38
55418;BME280;41287;47.554;7.844;2023-04-24T06:08:35;97372.00;;;17.34;62.23
55418;BME280;41287;47.554;7.844;2023-04-24T06:11:00;97369.31;;;17.34;62.33
55418;BME280;41287;47.554;7.844;2023-04-24T06:13:26;97385.56;;;17.34;62.32
55418;BME280;41287;47.554;7.844;2023-04-24T06:15:52;97374.72;;;17.34;62.46
55418;BME280;41287;47.554;7.844;2023-04-24T06:18:17;97372.00;;;17.34;62.38
55418;BME280;41287;47.554;7.844;2023-04-24T06:20:43;97363.88;;;17.34;62.39
55418;BME280;41287;47.554;7.844;2023-04-24T06:23:08;97363.88;;;17.34;62.28
55418;BME280;41287;47.554;7.844;2023-04-24T06:25:34;97367.38;;;17.34;62.72
55418;BME280;41287;47.554;7.844;2023-04-24T06:27:59;97371.22;;;17.33;62.56
55418;BME280;41287;47.554;7.844;2023-04-24T06:30:25;97365.03;;;17.33;62.59
55418;BME280;41287;47.554;7.844;2023-04-24T06:32:52;97366.97;;;17.32;62.45
55418;BME280;41287;47.554;7.844;2023-04-24T06:35:17;97359.63;;;17.33;62.62
55418;BME280;41287;47.554;7.844;2023-04-24T06:37:44;97362.34;;;17.33;62.64
55418;BME280;41287;47.554;7.844;2023-04-24T06:40:11;97388.63;;;17.32;62.34
55418;BME280;41287;47.554;7.844;2023-04-24T06:42:37;97413.00;;;17.32;62.44
55418;BME280;41287;47.554;7.844;2023-04-24T06:45:03;97417.63;;;17.32;62.39
55418;BME280;41287;47.554;7.844;2023-04-24T06:47:29;97428.44;;;17.32;62.55
55418;BME280;41287;47.554;7.844;2023-04-24T06:49:56;97427.66;;;17.31;62.55
55418;BME280;41287;47.554;7.844;2023-04-24T06:52:23;97444.69;;;17.32;62.33
55418;BME280;41287;47.554;7.844;2023-04-24T06:54:51;97449.31;;;17.31;62.34
55418;BME280;41287;47.554;7.844;2023-04-24T06:57:17;97450.44;;;17.30;62.43
55418;BME280;41287;47.554;7.844;2023-04-24T06:59:43;97455.84;;;17.30;62.32
55418;BME280;41287;47.554;7.844;2023-04-24T07:02:08;97460.56;;;17.33;62.27
55418;BME280;41287;47.554;7.844;2023-04-24T07:04:35;97462.84;;;17.31;62.65
55418;BME280;41287;47.554;7.844;2023-04-24T07:07:02;97468.59;;;17.30;62.39
55418;BME280;41287;47.554;7.844;2023-04-24T07:09:27;97474.81;;;17.30;62.27
55418;BME280;41287;47.554;7.844;2023-04-24T07:11:52;97472.91;;;17.31;62.37
55418;BME280;41287;47.554;7.844;2023-04-24T07:14:18;97480.22;;;17.30;62.35
55418;BME280;41287;47.554;7.844;2023-04-24T07:16:44;97478.31;;;17.31;62.38
55418;BME280;41287;47.554;7.844;2023-04-24T07:19:10;97479.44;;;17.30;62.49
55418;BME280;41287;47.554;7.844;2023-04-24T07:21:35;97491.06;;;17.30;62.28
55418;BME280;41287;47.554;7.844;2023-04-24T07:24:01;97478.66;;;17.29;62.32
55418;BME280;41287;47.554;7.844;2023-04-24T07:26:28;97493.78;;;17.30;62.31
55418;BME280;41287;47.554;7.844;2023-04-24T07:28:55;97481.34;;;17.29;62.25
55418;BME280;41287;47.554;7.844;2023-04-24T07:31:22;97484.84;;;17.30;62.18
55418;BME280;41287;47.554;7.844;2023-04-24T07:33:48;97486.75;;;17.29;62.46
55418;BME280;41287;47.554;7.844;2023-04-24T07:36:13;97486.75;;;17.29;62.28
55418;BME280;41287;47.554;7.844;2023-04-24T07:38:44;97486.75;;;17.29;62.29
55418;BME280;41287;47.554;7.844;2023-04-24T07:41:09;97494.88;;;17.29;62.24
55418;BME280;41287;47.554;7.844;2023-04-24T07:43:35;97499.50;;;17.29;62.21
55418;BME280;41287;47.554;7.844;2023-04-24T07:46:00;97500.31;;;17.29;62.25
55418;BME280;41287;47.554;7.844;2023-04-24T07:48:26;97499.50;;;17.29;62.31
55418;BME280;41287;47.554;7.844;2023-04-24T07:50:52;97501.09;;;17.30;63.20
55418;BME280;41287;47.554;7.844;2023-04-24T07:53:19;97505.84;;;17.33;64.01
55418;BME280;41287;47.554;7.844;2023-04-24T07:55:45;97513.63;;;17.34;64.42
55418;BME280;41287;47.554;7.844;2023-04-24T07:58:11;97505.94;;;17.36;64.26
55418;BME280;41287;47.554;7.844;2023-04-24T08:00:36;97514.53;;;17.38;64.38
55418;BME280;41287;47.554;7.844;2023-04-24T08:03:01;97518.03;;;17.39;64.28
55418;BME280;41287;47.554;7.844;2023-04-24T08:05:27;97516.13;;;17.40;64.10
55418;BME280;41287;47.554;7.844;2023-04-24T08:07:54;97518.47;;;17.41;64.08
55418;BME280;41287;47.554;7.844;2023-04-24T08:10:20;97519.25;;;17.42;64.06
55418;BME280;41287;47.554;7.844;2023-04-24T08:12:46;97526.25;;;17.43;63.94
55418;BME280;41287;47.554;7.844;2023-04-24T08:15:11;97528.16;;;17.42;63.94
55418;BME280;41287;47.554;7.844;2023-04-24T08:17:38;97523.88;;;17.41;63.76
55418;BME280;41287;47.554;7.844;2023-04-24T08:20:04;97522.28;;;17.40;63.92
55418;BME280;41287;47.554;7.844;2023-04-24T08:22:30;97528.50;;;17.41;63.83
55418;BME280;41287;47.554;7.844;2023-04-24T08:24:57;97528.06;;;17.38;63.71
55418;BME280;41287;47.554;7.844;2023-04-24T08:27:23;97522.66;;;17.38;63.57
55418;BME280;41287;47.554;7.844;2023-04-24T08:29:49;97523.78;;;17.37;63.63
55418;BME280;41287;47.554;7.844;2023-04-24T08:32:15;97524.91;;;17.36;63.49
55418;BME280;41287;47.554;7.844;2023-04-24T08:34:40;97532.22;;;17.36;63.58
55418;BME280;41287;47.554;7.844;2023-04-24T08:37:05;97541.16;;;17.36;63.54
55418;BME280;41287;47.554;7.844;2023-04-24T08:39:31;97538.78;;;17.35;63.35
55418;BME280;41287;47.554;7.844;2023-04-24T08:41:56;97547.69;;;17.35;63.30
55418;BME280;41287;47.554;7.844;2023-04-24T08:44:22;97553.09;;;17.35;63.35
55418;BME280;41287;47.554;7.844;2023-04-24T08:46:48;97554.22;;;17.34;63.28
55418;BME280;41287;47.554;7.844;2023-04-24T08:49:14;97552.31;;;17.35;63.30
55418;BME280;41287;47.554;7.844;2023-04-24T08:51:45;97549.19;;;17.33;63.09
55418;BME280;41287;47.554;7.844;2023-04-24T08:54:12;97549.94;;;17.33;63.19
55418;BME280;41287;47.554;7.844;2023-04-24T08:56:43;97560.78;;;17.33;63.11
55418;BME280;41287;47.554;7.844;2023-04-24T08:59:09;97563.47;;;17.33;63.00
55418;BME280;41287;47.554;7.844;2023-04-24T09:01:37;97553.78;;;17.32;63.09
55418;BME280;41287;47.554;7.844;2023-04-24T09:04:03;97558.06;;;17.33;63.16
55418;BME280;41287;47.554;7.844;2023-04-24T09:06:30;97555.72;;;17.32;63.28
55418;BME280;41287;47.554;7.844;2023-04-24T09:09:01;97554.59;;;17.33;62.99
55418;BME280;41287;47.554;7.844;2023-04-24T09:11:27;97553.78;;;17.32;63.06
55418;BME280;41287;47.554;7.844;2023-04-24T09:13:56;97550.63;;;17.30;62.93
55418;BME280;41287;47.554;7.844;2023-04-24T09:16:24;97560.34;;;17.31;62.80
55418;BME280;41287;47.554;7.844;2023-04-24T09:18:55;97563.03;;;17.31;62.99
55418;BME280;41287;47.554;7.844;2023-04-24T09:21:22;97556.84;;;17.31;62.94
55418;BME280;41287;47.554;7.844;2023-04-24T09:23:58;97565.28;;;17.29;62.85
55418;BME280;41287;47.554;7.844;2023-04-24T09:26:24;97557.97;;;17.30;61.75
55418;BME280;41287;47.554;7.844;2023-04-24T09:28:50;97558.75;;;17.30;60.92
55418;BME280;41287;47.554;7.844;2023-04-24T09:31:19;97562.91;;;17.28;60.55
55418;BME280;41287;47.554;7.844;2023-04-24T09:33:58;97557.06;;;17.26;59.78
55418;BME280;41287;47.554;7.844;2023-04-24T09:36:28;97567.91;;;17.26;59.75
55418;BME280;41287;47.554;7.844;2023-04-24T09:38:58;97556.28;;;17.25;60.04
55418;BME280;41287;47.554;7.844;2023-04-24T09:41:23;97555.13;;;17.26;59.88
55418;BME280;41287;47.554;7.844;2023-04-24T09:43:49;97555.47;;;17.25;59.94
55418;BME280;41287;47.554;7.844;2023-04-24T09:46:18;97555.03;;;17.23;59.75
55418;BME280;41287;47.554;7.844;2023-04-24T09:48:43;97552.31;;;17.23;60.10
55418;BME280;41287;47.554;7.844;2023-04-24T09:51:09;97556.13;;;17.22;59.89
55418;BME280;41287;47.554;7.844;2023-04-24T09:53:38;97575.09;;;17.22;59.63
55418;BME280;41287;47.554;7.844;2023-04-24T09:56:09;97578.91;;;17.21;59.73
55418;BME280;41287;47.554;7.844;2023-04-24T09:58:36;97583.22;;;17.22;59.72
55418;BME280;41287;47.554;7.844;2023-04-24T10:01:01;97572.72;;;17.20;60.23
55418;BME280;41287;47.554;7.844;2023-04-24T10:03:30;97580.50;;;17.22;60.49
55418;BME280;41287;47.554;7.844;2023-04-24T10:06:00;97583.22;;;17.22;60.91
55418;BME280;41287;47.554;7.844;2023-04-24T10:08:26;97581.31;;;17.22;60.98
55418;BME280;41287;47.554;7.844;2023-04-24T10:10:52;97592.13;;;17.22;60.96
55418;BME280;41287;47.554;7.844;2023-04-24T10:13:17;97593.72;;;17.23;60.98
55418;BME280;41287;47.554;7.844;2023-04-24T10:15:43;97587.84;;;17.21;61.09
55418;BME280;41287;47.554;7.844;2023-04-24T10:18:09;97591.34;;;17.22;61.13
55418;BME280;41287;47.554;7.844;2023-04-24T10:20:40;97591.34;;;17.22;61.17
55418;BME280;41287;47.554;7.844;2023-04-24T10:23:05;97602.16;;;17.22;61.25
55418;BME280;41287;47.554;7.844;2023-04-24T10:25:33;97598.34;;;17.23;60.97
55418;BME280;41287;47.554;7.844;2023-04-24T10:28:01;97588.31;;;17.23;61.19
55418;BME280;41287;47.554;7.844;2023-04-24T10:30:29;97597.53;;;17.22;61.10
55418;BME280;41287;47.554;7.844;2023-04-24T10:32:55;97584.00;;;17.22;61.27
55418;BME280;41287;47.554;7.844;2023-04-24T10:35:21;97586.72;;;17.22;61.10
55418;BME280;41287;47.554;7.844;2023-04-24T10:40:33;97596.75;;;17.22;61.20
55418;BME280;41287;47.554;7.844;2023-04-24T10:42:59;97598.34;;;17.23;61.23
55418;BME280;41287;47.554;7.844;2023-04-24T10:45:25;97591.00;;;17.23;61.38
55418;BME280;41287;47.554;7.844;2023-04-24T10:47:52;97587.50;;;17.23;61.32
55418;BME280;41287;47.554;7.844;2023-04-24T10:50:18;97584.00;;;17.22;61.28
55418;BME280;41287;47.554;7.844;2023-04-24T10:52:47;97585.91;;;17.22;61.43
55418;BME280;41287;47.554;7.844;2023-04-24T10:55:14;97599.47;;;17.22;61.39
55418;BME280;41287;47.554;7.844;2023-04-24T10:58:03;97583.53;;;17.20;61.52
55418;BME280;41287;47.554;7.844;2023-04-24T11:00:28;97588.63;;;17.22;61.39
55418;BME280;41287;47.554;7.844;2023-04-24T11:02:54;97585.13;;;17.21;61.52
55418;BME280;41287;47.554;7.844;2023-04-24T11:05:21;97593.25;;;17.21;61.38
55418;BME280;41287;47.554;7.844;2023-04-24T11:08:12;97587.41;;;17.19;61.54
55418;BME280;41287;47.554;7.844;2023-04-24T11:10:44;97596.75;;;17.22;61.39
55418;BME280;41287;47.554;7.844;2023-04-24T11:13:10;97590.53;;;17.21;61.79
55418;BME280;41287;47.554;7.844;2023-04-24T11:15:35;97580.50;;;17.22;61.60
55418;BME280;41287;47.554;7.844;2023-04-24T11:18:00;97585.91;;;17.22;61.58
55418;BME280;41287;47.554;7.844;2023-04-24T11:20:26;97587.84;;;17.21;61.60
55418;BME280;41287;47.554;7.844;2023-04-24T11:22:53;97585.13;;;17.21;61.51
55418;BME280;41287;47.554;7.844;2023-04-24T11:25:21;97589.75;;;17.21;61.53
55418;BME280;41287;47.554;7.844;2023-04-24T11:27:47;97584.34;;;17.21;61.65
55418;BME280;41287;47.554;7.844;2023-04-24T11:30:18;97596.28;;;17.20;61.57
55418;BME280;41287;47.554;7.844;2023-04-24T11:32:47;97604.88;;;17.22;61.72
55418;BME280;41287;47.554;7.844;2023-04-24T11:37:44;97601.38;;;17.21;61.67
55418;BME280;41287;47.554;7.844;2023-04-24T11:40:17;97595.16;;;17.21;61.59
55418;BME280;41287;47.554;7.844;2023-04-24T11:42:46;97597.88;;;17.21;61.57
55418;BME280;41287;47.554;7.844;2023-04-24T11:45:20;97592.47;;;17.21;61.52
55418;BME280;41287;47.554;7.844;2023-04-24T11:47:46;97601.38;;;17.21;61.71
55418;BME280;41287;47.554;7.844;2023-04-24T11:50:13;97598.22;;;17.19;61.59
55418;BME280;41287;47.554;7.844;2023-04-24T11:52:41;97592.47;;;17.21;61.73
55418;BME280;41287;47.554;7.844;2023-04-24T11:55:08;97593.25;;;17.21;61.72
55418;BME280;41287;47.554;7.844;2023-04-24T11:57:35;97590.53;;;17.21;61.55
55418;BME280;41287;47.554;7.844;2023-04-24T12:00:03;97599.00;;;17.20;61.53
55418;BME280;41287;47.554;7.844;2023-04-24T12:02:30;97595.16;;;17.21;61.82
55418;BME280;41287;47.554;7.844;2023-04-24T12:04:56;97604.41;;;17.20;61.74
55418;BME280;41287;47.554;7.844;2023-04-24T12:07:22;97599.78;;;17.20;61.71
55418;BME280;41287;47.554;7.844;2023-04-24T12:09:54;97593.25;;;17.21;61.81
55418;BME280;41287;47.554;7.844;2023-04-24T12:12:20;97627.66;;;17.21;61.72
55418;BME280;41287;47.554;7.844;2023-04-24T12:14:51;97610.63;;;17.20;61.74
55418;BME280;41287;47.554;7.844;2023-04-24T12:17:17;97607.91;;;17.20;61.84
55418;BME280;41287;47.554;7.844;2023-04-24T12:19:48;97605.56;;;17.19;61.80
55418;BME280;41287;47.554;7.844;2023-04-24T12:22:13;97599.78;;;17.20;61.75
55418;BME280;41287;47.554;7.844;2023-04-24T12:25:03;97612.09;;;17.18;61.88
55418;BME280;41287;47.554;7.844;2023-04-24T12:27:33;97607.13;;;17.20;61.81
55418;BME280;41287;47.554;7.844;2023-04-24T12:30:00;97626.88;;;17.20;61.73
55418;BME280;41287;47.554;7.844;2023-04-24T12:32:26;97617.19;;;17.19;61.77
55418;BME280;41287;47.554;7.844;2023-04-24T12:34:52;97623.34;;;17.20;61.72
55418;BME280;41287;47.554;7.844;2023-04-24T12:37:17;97618.75;;;17.20;61.76
55418;BME280;41287;47.554;7.844;2023-04-24T12:40:04;97625.63;;;17.18;61.66
55418;BME280;41287;47.554;7.844;2023-04-24T12:42:34;97624.16;;;17.20;61.45
55418;BME280;41287;47.554;7.844;2023-04-24T12:45:04;97620.66;;;17.20;61.69
55418;BME280;41287;47.554;7.844;2023-04-24T12:47:31;97617.19;;;17.19;61.51
55418;BME280;41287;47.554;7.844;2023-04-24T12:49:56;97614.47;;;17.19;61.62
55418;BME280;41287;47.554;7.844;2023-04-24T12:52:23;97616.38;;;17.19;61.58
55418;BME280;41287;47.554;7.844;2023-04-24T12:54:58;97623.34;;;17.20;61.68
55418;BME280;41287;47.554;7.844;2023-04-24T12:57:24;97619.91;;;17.19;61.64
55418;BME280;41287;47.554;7.844;2023-04-24T12:59:49;97625.31;;;17.19;61.70
55418;BME280;41287;47.554;7.844;2023-04-24T13:02:16;97628.00;;;17.19;61.51